Terminal Aerodrome Forecast
Issued by NWS Louisville, KY

Home | Current Version | Previous Version | Text Only | Print | Product List | Glossary On
Versions: 1 2 3 4 5 6 7 8 9 10 11 12 13
000
FTUS43 KLMK 172338
TAFBWG
TAF
KBWG 172338Z 1800/1824 VRB03KT P6SM SCT250
     FM180900 19008KT P6SM SCT200 WS020/24038KT
     FM181400 21015G27KT P6SM BKN035
     FM181900 23018G28KT P6SM BKN035
     FM182200 24020KT P6SM SCT045=

USA.gov is the U.S. government's official web portal to all federal, state and local government web resources and services.